Terminal Aerodrome Forecast
Issued by NWS

Home | Current Version | Previous Version | Text Only | Print | Product List | Glossary On
Versions: 1 2 3 4 5 6 7 8 9 10 11 12 13 14 15 16 17
000
FTUS41 KGYX 272336
TAFPSM
TAF
KPSM 272336Z 2800/2824 19013G23KT P6SM SCT050 OVC250
     FM280100 19007KT 6SM -SHRA BR OVC050
     FM280300 21010KT 6SM BR OVC040
     FM280500 21009KT 3SM BR OVC015
     FM280700 21009KT 2SM BR OVC006
     FM280900 21008KT 1/2SM FG OVC002
     FM281300 22010KT P6SM BKN250
     FM282000 26008G15KT P6SM BKN250 PROB30 2820/2822 P6SM -TSRA
      BKN050CB=

USA.gov is the U.S. government's official web portal to all federal, state and local government web resources and services.